Terminal Aerodrome Forecast
Issued by NWS

Current Version | Previous Version | Text Only | Print | Product List | Glossary On
Versions: 1 2 3 4 5 6 7 8 9 10 11 12 13 14 15 16 17 18 19 20 21
000
FTUS44 KLZK 290758 AAA
TAFPBF
TAF AMD
KPBF 290758Z 2908/3006 17012G22KT P6SM BKN025 OVC050 WS020/18040KT
     FM291400 16010G22KT P6SM VCSH BKN020 OVC050 WS020/18040KT
     FM291800 15012G22KT P6SM -SHRA VCTS SCT025 OVC050CB PROB30
      2918/2924 1SM TSRA BR BKN015CB OVC040=

USA.gov is the U.S. government's official web portal to all federal, state and local government web resources and services.